createdAt,value
2022-09-15T00:00:54.122Z,1.90
2022-09-15T00:03:22.842Z,2.03
2022-09-15T00:05:51.445Z,1.88
2022-09-15T00:08:19.373Z,2.25
2022-09-15T00:10:58.735Z,2.05
2022-09-15T00:13:26.864Z,1.90
2022-09-15T00:15:55.275Z,1.58
2022-09-15T00:18:23.181Z,2.00
2022-09-15T00:20:51.186Z,1.60
2022-09-15T00:23:19.566Z,2.05
2022-09-15T00:25:52.067Z,2.10
2022-09-15T00:28:21.352Z,1.95
2022-09-15T00:30:50.703Z,2.08
2022-09-15T00:33:19.212Z,2.00
2022-09-15T00:35:48.709Z,1.98
2022-09-15T00:38:17.080Z,2.05
2022-09-15T00:40:48.933Z,1.95
2022-09-15T00:43:17.653Z,2.45
2022-09-15T00:45:45.803Z,2.10
2022-09-15T00:48:15.824Z,1.90
2022-09-15T00:50:46.482Z,1.90
2022-09-15T00:53:15.089Z,2.22
2022-09-15T00:55:48.361Z,2.03
2022-09-15T00:58:21.933Z,2.15
2022-09-15T01:00:56.659Z,1.98
2022-09-15T01:03:25.967Z,2.30
2022-09-15T01:05:55.534Z,2.10
2022-09-15T01:08:27.535Z,2.00
2022-09-15T01:10:55.644Z,2.00
2022-09-15T01:13:23.513Z,2.17
2022-09-15T01:15:54.505Z,2.10
2022-09-15T01:18:25.437Z,2.10
2022-09-15T01:21:10.102Z,1.98
2022-09-15T01:23:41.112Z,2.20
2022-09-15T01:26:28.929Z,2.40
2022-09-15T01:29:15.486Z,2.17
2022-09-15T01:32:22.092Z,2.13
2022-09-15T01:34:59.554Z,1.98
2022-09-15T01:37:30.964Z,2.05
2022-09-15T01:40:00.033Z,1.92
2022-09-15T01:42:29.064Z,1.92
2022-09-15T01:45:11.745Z,2.10
2022-09-15T01:47:39.313Z,1.95
2022-09-15T01:50:09.633Z,2.00
2022-09-15T01:52:38.165Z,2.20
2022-09-15T01:55:07.992Z,1.88
2022-09-15T01:57:35.467Z,1.90
2022-09-15T02:00:03.098Z,1.95
2022-09-15T02:02:38.912Z,1.80
2022-09-15T02:05:06.461Z,1.80
2022-09-15T02:07:40.267Z,1.90
2022-09-15T02:10:18.387Z,1.70
2022-09-15T02:12:50.845Z,2.00
2022-09-15T02:15:25.650Z,1.73
2022-09-15T02:17:55.428Z,1.85
2022-09-15T02:20:39.075Z,2.08
2022-09-15T02:23:19.662Z,1.88
2022-09-15T02:25:49.183Z,1.85
2022-09-15T02:28:19.282Z,2.10
2022-09-15T02:30:47.512Z,1.85
2022-09-15T02:33:17.512Z,1.90
2022-09-15T02:35:45.175Z,2.00
2022-09-15T02:38:13.168Z,1.60
2022-09-15T02:40:42.768Z,1.73
2022-09-15T02:43:12.134Z,2.00
2022-09-15T02:45:39.946Z,1.92
2022-09-15T02:48:09.707Z,1.83
2022-09-15T02:50:38.474Z,2.05
2022-09-15T02:53:06.227Z,2.20
2022-09-15T02:55:34.005Z,2.33
2022-09-15T02:58:01.509Z,2.17
2022-09-15T03:00:29.445Z,2.20
2022-09-15T03:02:56.953Z,2.30
2022-09-15T03:05:26.102Z,2.00
2022-09-15T03:07:53.840Z,2.28
2022-09-15T03:10:21.808Z,2.10
2022-09-15T03:12:50.699Z,2.10
2022-09-15T03:15:19.499Z,2.20
2022-09-15T03:17:48.174Z,2.00
2022-09-15T03:20:20.442Z,2.05
2022-09-15T03:22:48.525Z,1.90
2022-09-15T03:25:16.572Z,2.00
2022-09-15T03:27:44.087Z,2.22
2022-09-15T03:30:12.273Z,2.08
2022-09-15T03:32:39.853Z,2.10
2022-09-15T03:35:07.685Z,1.92
2022-09-15T03:37:35.313Z,2.03
2022-09-15T03:40:03.959Z,2.33
2022-09-15T03:42:32.457Z,1.98
2022-09-15T03:44:59.987Z,2.05
2022-09-15T03:47:27.495Z,1.83
2022-09-15T03:49:55.409Z,2.20
2022-09-15T03:52:22.922Z,2.00
2022-09-15T03:54:50.374Z,2.42
2022-09-15T03:57:17.947Z,1.88
2022-09-15T03:59:45.421Z,2.15
2022-09-15T04:02:13.228Z,2.00
2022-09-15T04:04:41.561Z,1.98
2022-09-15T04:07:09.243Z,2.03
2022-09-15T04:09:37.441Z,2.17
2022-09-15T04:12:05.300Z,2.25
2022-09-15T04:14:32.880Z,2.03
2022-09-15T04:17:00.376Z,2.30
2022-09-15T04:19:28.132Z,2.55
2022-09-15T04:21:55.583Z,2.10
2022-09-15T04:24:25.884Z,2.30
2022-09-15T04:26:53.501Z,2.00
2022-09-15T04:29:21.030Z,1.98
2022-09-15T04:31:48.911Z,2.58
2022-09-15T04:34:16.769Z,2.75
2022-09-15T04:36:44.242Z,2.03
2022-09-15T04:39:11.713Z,2.20
2022-09-15T04:41:39.218Z,2.25
2022-09-15T04:44:06.634Z,2.10
2022-09-15T04:46:34.202Z,1.90
2022-09-15T04:49:01.735Z,2.03
2022-09-15T04:51:29.384Z,1.98
2022-09-15T04:53:56.837Z,1.75
2022-09-15T04:56:25.818Z,1.83
2022-09-15T04:59:03.235Z,1.80
2022-09-15T05:01:32.521Z,1.80
2022-09-15T05:04:01.701Z,1.92
2022-09-15T05:06:29.148Z,2.00
2022-09-15T05:08:57.691Z,1.73
2022-09-15T05:11:25.726Z,2.10
2022-09-15T05:13:53.574Z,2.10
2022-09-15T05:16:22.723Z,1.77
2022-09-15T05:18:51.350Z,1.70
2022-09-15T05:21:19.543Z,1.70
2022-09-15T05:23:47.251Z,1.80
2022-09-15T05:26:15.794Z,1.80
2022-09-15T05:28:43.643Z,1.92
2022-09-15T05:31:19.668Z,1.80
2022-09-15T05:33:48.159Z,1.88
2022-09-15T05:36:17.505Z,1.58
2022-09-15T05:38:45.178Z,1.90
2022-09-15T05:41:13.844Z,1.92
2022-09-15T05:43:41.432Z,2.05
2022-09-15T05:46:10.440Z,1.75
2022-09-15T05:48:38.140Z,2.10
2022-09-15T05:51:05.762Z,1.85
2022-09-15T05:53:34.799Z,2.03
2022-09-15T05:56:05.237Z,2.08
2022-09-15T05:58:33.056Z,2.10
2022-09-15T06:01:05.563Z,2.00
2022-09-15T06:03:33.142Z,2.10
2022-09-15T06:06:01.242Z,2.30
2022-09-15T06:08:42.570Z,1.90
2022-09-15T06:11:16.012Z,2.10
2022-09-15T06:13:44.128Z,1.85
2022-09-15T06:16:15.020Z,1.88
2022-09-15T06:18:42.894Z,1.67
2022-09-15T06:21:14.349Z,1.73
2022-09-15T06:23:43.335Z,1.60
2022-09-15T06:26:16.792Z,1.60
2022-09-15T06:28:48.618Z,1.83
2022-09-15T06:31:16.285Z,1.63
2022-09-15T06:33:44.854Z,1.50
2022-09-15T06:36:13.420Z,1.60
2022-09-15T06:38:41.387Z,1.58
2022-09-15T06:41:09.535Z,1.80
2022-09-15T06:43:37.311Z,1.80
2022-09-15T06:46:07.931Z,1.80
2022-09-15T06:48:36.166Z,1.50
2022-09-15T06:51:03.984Z,1.63
2022-09-15T06:53:32.601Z,1.45
2022-09-15T06:56:03.975Z,1.60
2022-09-15T06:58:31.942Z,1.50
2022-09-15T07:01:04.101Z,1.80
2022-09-15T07:03:31.870Z,1.80
2022-09-15T07:05:59.431Z,1.38
2022-09-15T07:08:26.893Z,1.80
2022-09-15T07:10:55.122Z,1.95
2022-09-15T07:13:23.203Z,1.33
2022-09-15T07:16:01.794Z,1.65
2022-09-15T07:18:29.387Z,1.10
2022-09-15T07:21:00.848Z,1.00
2022-09-15T07:23:28.710Z,0.93
2022-09-15T07:26:06.457Z,0.95
2022-09-15T07:28:34.137Z,1.15
2022-09-15T07:31:01.834Z,1.17
2022-09-15T07:33:29.310Z,1.00
2022-09-15T07:35:56.851Z,0.90
2022-09-15T07:38:24.440Z,1.00
2022-09-15T07:40:54.514Z,1.13
2022-09-15T07:43:22.013Z,1.10
2022-09-15T07:45:49.619Z,1.38
2022-09-15T07:48:17.145Z,1.00
2022-09-15T07:50:47.218Z,1.10
2022-09-15T07:53:14.750Z,0.90
2022-09-15T07:55:42.247Z,1.10
2022-09-15T07:58:09.789Z,1.20
2022-09-15T08:00:39.315Z,0.90
2022-09-15T08:03:07.035Z,1.10
2022-09-15T08:05:38.691Z,1.00
2022-09-15T08:08:08.111Z,1.00
2022-09-15T08:10:35.990Z,0.85
2022-09-15T08:13:03.432Z,1.20
2022-09-15T08:15:30.952Z,1.20
2022-09-15T08:17:58.545Z,1.10
2022-09-15T08:20:26.050Z,0.98
2022-09-15T08:22:53.806Z,0.90
2022-09-15T08:25:21.337Z,1.17
2022-09-15T08:27:48.907Z,0.80
2022-09-15T08:30:16.468Z,0.90
2022-09-15T08:32:44.104Z,0.80
2022-09-15T08:35:11.930Z,0.60
2022-09-15T08:37:40.027Z,0.90
2022-09-15T08:40:07.871Z,0.80
2022-09-15T08:42:35.506Z,0.90
2022-09-15T08:45:04.779Z,0.60
2022-09-15T08:47:32.544Z,0.70
2022-09-15T08:50:04.222Z,0.70
2022-09-15T08:52:41.029Z,0.70
2022-09-15T08:55:17.536Z,0.82
2022-09-15T08:57:45.274Z,0.70
2022-09-15T09:00:16.874Z,0.60
2022-09-15T09:02:56.320Z,0.77
2022-09-15T09:05:42.680Z,0.70
2022-09-15T09:08:29.778Z,0.70
2022-09-15T09:11:12.706Z,0.70
2022-09-15T09:13:50.158Z,0.80
2022-09-15T09:16:36.329Z,0.50
2022-09-15T09:19:03.989Z,0.70
2022-09-15T09:21:37.445Z,0.68
2022-09-15T09:24:17.205Z,0.70
2022-09-15T09:26:47.632Z,0.60
2022-09-15T09:29:27.028Z,0.70
2022-09-15T09:31:55.756Z,0.70
2022-09-15T09:34:32.705Z,0.70
2022-09-15T09:37:01.283Z,0.70
2022-09-15T09:39:29.052Z,0.70
2022-09-15T09:41:57.053Z,0.70
2022-09-15T09:44:31.886Z,0.75
2022-09-15T09:47:00.598Z,0.60
2022-09-15T09:49:30.334Z,0.63
2022-09-15T09:52:00.115Z,0.80
2022-09-15T09:54:29.356Z,0.60
2022-09-15T09:56:58.046Z,0.70
2022-09-15T09:59:40.755Z,0.60
2022-09-15T10:02:11.395Z,0.70
2022-09-15T10:04:39.727Z,0.60
2022-09-15T10:07:07.891Z,0.68
2022-09-15T10:09:35.653Z,0.70
2022-09-15T10:12:04.434Z,0.73
2022-09-15T10:14:33.149Z,0.60
2022-09-15T10:17:03.822Z,0.70
2022-09-15T10:19:33.448Z,0.80
2022-09-15T10:22:02.017Z,0.65
2022-09-15T10:24:37.149Z,0.80
2022-09-15T10:27:18.709Z,0.80
2022-09-15T10:29:46.576Z,0.68
2022-09-15T10:32:17.825Z,0.82
2022-09-15T10:34:48.947Z,0.82
2022-09-15T10:37:23.450Z,0.75
2022-09-15T10:39:55.268Z,0.80
2022-09-15T10:42:22.823Z,0.70
2022-09-15T10:45:08.455Z,0.70
2022-09-15T10:47:42.823Z,0.85
2022-09-15T10:50:14.988Z,0.80
2022-09-15T10:53:01.289Z,0.80
2022-09-15T10:55:52.967Z,0.70
2022-09-15T10:58:42.171Z,0.73
2022-09-15T11:01:30.200Z,0.70
2022-09-15T11:04:16.211Z,0.80
2022-09-15T11:06:46.816Z,0.60
2022-09-15T11:09:15.593Z,0.70
2022-09-15T11:12:06.088Z,0.70
2022-09-15T11:14:40.820Z,0.60
2022-09-15T11:17:23.517Z,0.50
2022-09-15T11:19:50.983Z,0.70
2022-09-15T11:22:24.950Z,0.70
2022-09-15T11:25:02.123Z,0.57
2022-09-15T11:27:59.418Z,0.85
2022-09-15T11:30:32.393Z,0.73
2022-09-15T11:33:04.352Z,0.68
2022-09-15T11:35:35.044Z,0.70
2022-09-15T11:38:14.868Z,0.80
2022-09-15T11:40:47.372Z,0.75
2022-09-15T11:43:17.681Z,0.80
2022-09-15T11:45:56.513Z,0.80
2022-09-15T11:48:24.090Z,0.80
2022-09-15T11:50:54.499Z,0.90
2022-09-15T11:53:34.818Z,0.80
2022-09-15T11:56:28.551Z,0.80
2022-09-15T11:59:05.527Z,1.00
2022-09-15T12:01:59.576Z,1.20
2022-09-15T12:04:32.211Z,1.10
2022-09-15T12:07:13.707Z,1.20
2022-09-15T12:09:42.210Z,1.05
2022-09-15T12:12:13.191Z,1.10
2022-09-15T12:14:45.391Z,1.10
2022-09-15T12:17:31.766Z,1.13
2022-09-15T12:20:05.557Z,1.30
2022-09-15T12:22:38.925Z,1.40
2022-09-15T12:25:13.057Z,1.25
2022-09-15T12:27:40.667Z,1.20
2022-09-15T12:30:28.223Z,1.48
2022-09-15T12:32:57.273Z,1.35
2022-09-15T12:35:24.802Z,1.40
2022-09-15T12:37:59.821Z,1.30
2022-09-15T12:40:34.143Z,1.50
2022-09-15T12:43:03.210Z,1.65
2022-09-15T12:45:31.991Z,1.60
2022-09-15T12:48:14.430Z,1.20
2022-09-15T12:50:43.237Z,1.50
2022-09-15T12:53:15.587Z,1.40
2022-09-15T12:55:56.612Z,1.60
2022-09-15T12:58:30.559Z,1.70
2022-09-15T13:01:18.319Z,1.50
2022-09-15T13:03:46.428Z,1.50
2022-09-15T13:06:24.294Z,1.52
2022-09-15T13:08:53.672Z,1.60
2022-09-15T13:11:23.936Z,1.60
2022-09-15T13:13:58.736Z,1.70
2022-09-15T13:16:28.033Z,1.63
2022-09-15T13:19:03.720Z,1.60
2022-09-15T13:21:32.153Z,1.40
2022-09-15T13:24:00.349Z,2.45
2022-09-15T13:26:28.230Z,1.58
2022-09-15T13:28:57.706Z,1.70
2022-09-15T13:31:38.171Z,1.55
2022-09-15T13:40:28.980Z,1.70
2022-09-15T13:43:08.781Z,1.90
2022-09-15T13:45:40.997Z,1.70
2022-09-15T13:48:14.645Z,1.60
2022-09-15T13:50:44.129Z,1.60
2022-09-15T13:53:24.431Z,1.67
2022-09-15T13:55:54.757Z,1.92
2022-09-15T14:01:13.181Z,2.33
2022-09-15T14:03:53.131Z,1.85
2022-09-15T14:06:22.981Z,2.05
2022-09-15T14:09:02.163Z,1.63
2022-09-15T14:11:31.204Z,1.60
2022-09-15T14:14:03.168Z,1.80
2022-09-15T14:16:39.931Z,1.88
2022-09-15T14:19:22.711Z,1.80
2022-09-15T14:21:52.826Z,2.30
2022-09-15T14:24:26.380Z,1.80
2022-09-15T14:26:54.415Z,2.40
2022-09-15T14:29:25.118Z,1.98
2022-09-15T14:31:53.353Z,2.00
2022-09-15T14:34:20.933Z,1.70
2022-09-15T14:36:59.229Z,1.92
2022-09-15T14:39:26.890Z,1.90
2022-09-15T14:41:54.402Z,1.90
2022-09-15T14:47:43.501Z,1.95
2022-09-15T14:50:18.285Z,1.90
2022-09-15T14:53:08.325Z,2.00
2022-09-15T14:55:44.124Z,2.00
2022-09-15T14:58:16.682Z,2.10
2022-09-15T15:01:04.426Z,2.10
2022-09-15T15:03:39.552Z,1.88
2022-09-15T15:09:04.012Z,2.00
2022-09-15T15:11:32.201Z,2.05
2022-09-15T15:14:00.257Z,1.80
2022-09-15T15:16:29.464Z,2.25
2022-09-15T15:18:57.527Z,1.98
2022-09-15T15:21:39.014Z,2.00
2022-09-15T15:24:23.167Z,2.00
2022-09-15T15:26:51.097Z,2.28
2022-09-15T15:29:37.339Z,1.90
2022-09-15T15:32:12.676Z,2.00
2022-09-15T15:34:40.313Z,2.00
2022-09-15T15:37:28.176Z,2.40
2022-09-15T15:39:59.789Z,2.00
2022-09-15T15:42:28.912Z,2.25
2022-09-15T15:45:05.549Z,1.90
2022-09-15T15:47:36.091Z,1.90
2022-09-15T15:50:14.630Z,2.15
2022-09-15T15:52:43.852Z,1.70
2022-09-15T15:55:19.015Z,2.10
2022-09-15T15:57:48.545Z,1.90
2022-09-15T16:00:22.306Z,1.80
2022-09-15T16:02:51.032Z,1.70
2022-09-15T16:05:19.712Z,1.90
2022-09-15T16:07:48.053Z,1.77
2022-09-15T16:10:17.096Z,1.70
2022-09-15T16:12:44.695Z,1.95
2022-09-15T16:15:22.280Z,1.58
2022-09-15T16:17:50.276Z,1.80
2022-09-15T16:20:19.911Z,1.60
2022-09-15T16:22:47.473Z,1.58
2022-09-15T16:25:18.331Z,1.75
2022-09-15T16:27:45.876Z,1.90
2022-09-15T16:30:13.459Z,1.50
2022-09-15T16:32:41.396Z,1.50
2022-09-15T16:35:24.323Z,1.58
2022-09-15T16:37:51.879Z,1.60
2022-09-15T16:40:19.403Z,1.70
2022-09-15T16:42:47.898Z,1.40
2022-09-15T16:45:21.922Z,1.63
2022-09-15T16:47:49.407Z,1.60
2022-09-15T16:50:17.007Z,1.50
2022-09-15T16:52:44.754Z,1.50
2022-09-15T16:55:23.366Z,1.67
2022-09-15T16:57:51.092Z,1.58
2022-09-15T17:00:19.003Z,1.83
2022-09-15T17:02:46.520Z,1.67
2022-09-15T17:05:19.556Z,1.67
2022-09-15T17:07:47.246Z,1.70
2022-09-15T17:10:14.803Z,1.70
2022-09-15T17:12:42.731Z,1.48
2022-09-15T17:15:30.074Z,1.50
2022-09-15T17:17:58.271Z,1.58
2022-09-15T17:20:26.310Z,1.65
2022-09-15T17:22:54.604Z,1.80
2022-09-15T17:25:22.080Z,1.55
2022-09-15T17:27:49.877Z,1.75
2022-09-15T17:30:18.088Z,1.75
2022-09-15T17:32:46.011Z,1.60
2022-09-15T17:35:23.610Z,1.55
2022-09-15T17:37:51.496Z,1.60
2022-09-15T17:40:20.299Z,1.58
2022-09-15T17:42:49.146Z,1.60
2022-09-15T17:45:18.748Z,1.60
2022-09-15T17:47:46.567Z,1.52
2022-09-15T17:50:14.594Z,1.70
2022-09-15T17:52:42.222Z,1.80
2022-09-15T17:55:14.184Z,1.50
2022-09-15T17:57:41.761Z,1.70
2022-09-15T18:00:10.627Z,1.80
2022-09-15T18:02:38.765Z,1.80
2022-09-15T18:05:06.547Z,1.60
2022-09-15T18:07:34.134Z,1.60
2022-09-15T18:10:01.603Z,1.50
2022-09-15T18:12:29.129Z,1.40
2022-09-15T18:14:56.759Z,1.58
2022-09-15T18:17:24.308Z,1.75
2022-09-15T18:19:52.468Z,1.55
2022-09-15T18:22:20.943Z,1.58
2022-09-15T18:24:48.387Z,1.45
2022-09-15T18:27:15.894Z,1.50
2022-09-15T18:29:43.431Z,1.85
2022-09-15T18:32:10.916Z,1.25
2022-09-15T18:34:38.456Z,1.50
2022-09-15T18:37:06.036Z,1.50
2022-09-15T18:39:34.222Z,1.50
2022-09-15T18:42:01.684Z,1.45
2022-09-15T18:44:29.779Z,1.63
2022-09-15T18:46:58.823Z,1.50
2022-09-15T18:49:27.211Z,1.60
2022-09-15T18:51:55.685Z,1.45
2022-09-15T18:54:24.017Z,1.50
2022-09-15T18:56:52.116Z,1.40
2022-09-15T18:59:20.386Z,1.50
2022-09-15T19:01:48.807Z,1.25
2022-09-15T19:04:16.918Z,1.50
2022-09-15T19:06:45.472Z,1.55
2022-09-15T19:09:13.619Z,1.40
2022-09-15T19:11:42.102Z,1.50
2022-09-15T19:14:10.405Z,1.30
2022-09-15T19:16:56.409Z,1.50
2022-09-15T19:19:25.648Z,1.30
2022-09-15T19:21:53.894Z,1.40
2022-09-15T19:24:21.930Z,1.40
2022-09-15T19:26:50.280Z,1.90
2022-09-15T19:29:18.405Z,1.40
2022-09-15T19:31:46.738Z,1.60
2022-09-15T19:34:14.695Z,1.48
2022-09-15T19:36:42.863Z,1.70
2022-09-15T19:39:12.429Z,1.50
2022-09-15T19:41:40.618Z,1.70
2022-09-15T19:44:10.742Z,1.50
2022-09-15T19:46:39.217Z,1.73
2022-09-15T19:49:07.179Z,1.55
2022-09-15T19:51:35.177Z,1.55
2022-09-15T19:54:04.001Z,1.60
2022-09-15T19:56:32.216Z,1.52
2022-09-15T19:59:00.428Z,1.60
2022-09-15T20:01:29.979Z,1.60
2022-09-15T20:03:58.699Z,1.55
2022-09-15T20:06:32.134Z,1.50
2022-09-15T20:09:00.790Z,1.60
2022-09-15T20:11:29.887Z,1.38
2022-09-15T20:13:58.088Z,1.50
2022-09-15T20:16:26.600Z,1.58
2022-09-15T20:18:55.546Z,1.60
2022-09-15T20:21:48.517Z,1.70
2022-09-15T20:24:17.090Z,1.58
2022-09-15T20:26:45.098Z,1.83
2022-09-15T20:29:13.504Z,1.58
2022-09-15T20:31:41.708Z,1.58
2022-09-15T20:34:09.719Z,1.90
2022-09-15T20:36:39.257Z,1.80
2022-09-15T20:39:13.390Z,1.65
2022-09-15T20:41:45.374Z,1.58
2022-09-15T20:44:13.643Z,1.63
2022-09-15T20:46:41.840Z,1.90
2022-09-15T20:49:09.859Z,1.58
2022-09-15T20:51:38.308Z,1.90
2022-09-15T20:54:06.704Z,1.70
2022-09-15T20:56:36.156Z,1.80
2022-09-15T20:59:05.061Z,1.80
2022-09-15T21:01:34.559Z,1.70
2022-09-15T21:04:02.844Z,2.08
2022-09-15T21:06:32.012Z,1.75
2022-09-15T21:09:00.595Z,1.83
2022-09-15T21:11:29.440Z,1.90
2022-09-15T21:13:57.886Z,1.67
2022-09-15T21:16:27.128Z,1.70
2022-09-15T21:18:55.539Z,1.80
2022-09-15T21:21:30.976Z,1.80
2022-09-15T21:24:02.113Z,1.92
2022-09-15T21:26:31.519Z,1.83
2022-09-15T21:28:59.487Z,1.60
2022-09-15T21:31:29.595Z,1.90
2022-09-15T21:33:58.156Z,2.05
2022-09-15T21:36:28.004Z,2.03
2022-09-15T21:38:56.857Z,1.97
2022-09-15T21:41:26.442Z,2.10
2022-09-15T21:43:55.468Z,2.00
2022-09-15T21:46:25.117Z,1.70
2022-09-15T21:48:53.245Z,1.90
2022-09-15T21:51:24.573Z,1.95
2022-09-15T21:53:56.454Z,2.08
2022-09-15T21:56:25.290Z,2.05
2022-09-15T21:58:54.661Z,2.20
2022-09-15T22:01:24.143Z,1.90
2022-09-15T22:03:56.498Z,2.53
2022-09-15T22:06:30.714Z,1.90
2022-09-15T22:09:03.151Z,2.22
2022-09-15T22:11:31.375Z,2.00
2022-09-15T22:13:59.376Z,2.28
2022-09-15T22:16:27.474Z,2.45
2022-09-15T22:18:55.792Z,1.80
2022-09-15T22:21:25.515Z,2.00
2022-09-15T22:23:55.034Z,2.08
2022-09-15T22:26:27.847Z,2.10
2022-09-15T22:28:56.290Z,1.80
2022-09-15T22:31:25.109Z,2.25
2022-09-15T22:33:53.493Z,2.00
2022-09-15T22:36:27.935Z,2.13
2022-09-15T22:38:57.427Z,2.40
2022-09-15T22:41:27.621Z,2.88
2022-09-15T22:43:56.099Z,2.70
2022-09-15T22:46:24.102Z,2.92
2022-09-15T22:48:52.171Z,2.97
2022-09-15T22:51:20.151Z,2.63
2022-09-15T22:53:48.298Z,2.75
2022-09-15T22:56:20.530Z,2.57
2022-09-15T22:58:49.625Z,2.67
2022-09-15T23:01:18.995Z,2.43
2022-09-15T23:03:50.975Z,2.90
2022-09-15T23:06:19.309Z,2.83
2022-09-15T23:08:51.048Z,3.07
2022-09-15T23:11:19.018Z,3.20
2022-09-15T23:13:47.008Z,2.60
2022-09-15T23:16:14.953Z,2.70
2022-09-15T23:18:43.291Z,3.10
2022-09-15T23:21:12.071Z,2.90
2022-09-15T23:23:41.400Z,2.60
2022-09-15T23:26:10.651Z,2.63
2022-09-15T23:28:41.857Z,3.00
2022-09-15T23:31:12.170Z,2.85
2022-09-15T23:33:40.320Z,2.95
2022-09-15T23:36:10.096Z,2.77
2022-09-15T23:38:39.474Z,2.73
2022-09-15T23:41:08.292Z,2.87
2022-09-15T23:43:36.433Z,2.70
2022-09-15T23:46:05.370Z,2.40
2022-09-15T23:48:33.415Z,2.92
2022-09-15T23:51:01.630Z,2.73
2022-09-15T23:53:29.576Z,2.47
2022-09-15T23:55:57.732Z,2.77
2022-09-15T23:58:25.904Z,3.00
